Darstellungsparameter: Aktuell verwendete Einstellungen:
Skalierung der Graphiken ... ?
xyx+y,   Skalierungsfaktor:      Skalierung: Modus: x, Faktor: 1
Darstellungszeitraum ... ?
Vom - - bis: - -   Zeitraum: 28.10.2008 - 03.11.2008
Min/Max/Avg-Anzeige ... ?
Zeige MMA aktuell
Zeige MMA Monat
Zeige MMA alles
Zeige --A aktuell
Zeige --A Monat
Zeige --A alles
Keine MMA-Anzeige
MMA:
Average (ber die Originaldaten)
MMA-Basis: 17.04.2019 - 19.05.2019
Quicknavigation für Darstellung... ?
Tage:      1T, 2T, 3T, 5T -1T -2T -3T -5T +1T +2T +3T +5T
Wochen: 1W, 2W, 3W -1W -2W -3W +1W +2W +3W
Monate: 1M, 3M, 6M -1M -3M -6M +1M +3M +6M
Jahre:    1J, 3J, 5J, 10J -1J -3J -5J -10J +1J +3J +5J +10J
Nutze für die Darstellung ... ?
Originaldaten oder Mittelwerte auf ...
Stundenbasis Tagesbasis Wochenbasis
Monatsbasis Jahresbasis      Datenbasis: Original-Daten
Darstellen als:
Statistik (Auto) Statistik J:M      Darstellung:
Zur Graphik,    zurück zur Übersicht aller Sensoren.
 
Tabellarische Datenbersicht: ?
 
Sensor: Nr:Datum:Temp:Abs-Feuchte:Windchill:Wind:
Aussen-T/F 1 28-10-2008 00:21:08 5.8 C 6.45 g/m*3 5.8 C 0 km/h
2 28-10-2008 00:46:08 6.1 C 6.58 g/m*3 6.1 C 0 km/h
3 28-10-2008 01:11:08 6.1 C 6.65 g/m*3 6.1 C 0 km/h
4 28-10-2008 01:36:08 5.8 C 6.52 g/m*3 5.8 C 0 km/h
5 28-10-2008 02:01:08 6 C 6.6 g/m*3 6 C 0 km/h
6 28-10-2008 02:26:08 6.3 C 6.81 g/m*3 6.3 C 0 km/h
7 28-10-2008 02:51:08 6.4 C 6.78 g/m*3 6.4 C 0 km/h
8 28-10-2008 03:16:08 6.4 C 6.78 g/m*3 6.4 C 0 km/h
9 28-10-2008 03:41:08 6.6 C 6.87 g/m*3 6.6 C 0 km/h
10 28-10-2008 04:06:08 6.5 C 6.82 g/m*3 6.5 C 0 km/h
11 28-10-2008 04:31:08 6.5 C 6.82 g/m*3 6.5 C 0 km/h
12 28-10-2008 04:56:09 6.5 C 6.9 g/m*3 6.5 C 0 km/h
13 28-10-2008 05:21:09 6.5 C 6.9 g/m*3 6.5 C 0 km/h
14 28-10-2008 05:46:09 6.4 C 6.93 g/m*3 6.4 C 0 km/h
15 28-10-2008 06:11:09 6.3 C 6.88 g/m*3 6.3 C 0 km/h
16 28-10-2008 06:36:09 6.5 C 6.97 g/m*3 6.5 C 0 km/h
17 28-10-2008 07:01:09 6.2 C 6.84 g/m*3 6.2 C 0 km/h
18 28-10-2008 07:26:09 6 C 6.75 g/m*3 6 C 0 km/h
19 28-10-2008 07:51:09 6 C 6.75 g/m*3 6 C 0 km/h
20 28-10-2008 08:16:09 6.2 C 6.91 g/m*3 6.2 C 0 km/h
21 28-10-2008 08:41:09 6.6 C 7.1 g/m*3 6.6 C 0 km/h
22 28-10-2008 09:06:09 7 C 7.21 g/m*3 7 C 0 km/h
23 28-10-2008 09:31:09 7.3 C 7.19 g/m*3 7.3 C 0 km/h
24 28-10-2008 09:56:09 7.8 C 6.94 g/m*3 7.8 C 0 km/h
25 28-10-2008 10:21:09 7.9 C 6.65 g/m*3 7.9 C 0 km/h
Sensor: Nr:Datum:Temp:Abs-Feuchte:Windchill:Wind:
Aussen-T/F 26 28-10-2008 10:46:09 8.5 C 6.92 g/m*3 8.5 C 0 km/h
27 28-10-2008 11:11:09 9.2 C 6.88 g/m*3 9.2 C 0 km/h
28 28-10-2008 11:36:09 10.1 C 6.71 g/m*3 10.1 C 0 km/h
29 28-10-2008 12:01:09 10.5 C 6.3 g/m*3 10.5 C 0 km/h
30 28-10-2008 12:26:09 10.5 C 5.82 g/m*3 10.5 C 0 km/h
31 28-10-2008 12:51:09 10.3 C 4.98 g/m*3 10.3 C 0 km/h
32 28-10-2008 13:16:10 10.6 C 5.37 g/m*3 10.6 C 0 km/h
33 28-10-2008 13:41:10 10.5 C 5.43 g/m*3 10.5 C 0 km/h
34 28-10-2008 14:06:10 10.1 C 5.3 g/m*3 10.1 C 0 km/h
35 28-10-2008 14:31:10 10.2 C 5.33 g/m*3 10.2 C 0 km/h
36 28-10-2008 14:56:10 10.4 C 5.4 g/m*3 10.4 C 0 km/h
37 28-10-2008 15:21:10 10.2 C 5.23 g/m*3 10.2 C 0 km/h
38 28-10-2008 15:46:10 9.8 C 5.38 g/m*3 9.8 C 0 km/h
39 28-10-2008 16:11:10 9 C 5.73 g/m*3 9 C 0 km/h
40 28-10-2008 16:36:10 8.4 C 6.19 g/m*3 8.4 C 0 km/h
41 28-10-2008 17:01:10 7.8 C 6.12 g/m*3 7.8 C 0 km/h
42 28-10-2008 17:26:10 7 C 5.97 g/m*3 7 C 0 km/h
43 28-10-2008 17:51:10 6.5 C 5.92 g/m*3 6.5 C 0 km/h
44 28-10-2008 18:16:10 6.2 C 5.96 g/m*3 6.2 C 0 km/h
45 28-10-2008 18:41:10 5.5 C 5.76 g/m*3 5.5 C 0 km/h
46 28-10-2008 19:06:10 5.4 C 5.72 g/m*3 5.4 C 0 km/h
47 28-10-2008 19:31:10 5.2 C 5.78 g/m*3 5.2 C 0 km/h
48 28-10-2008 19:56:10 5 C 5.71 g/m*3 5 C 0 km/h
49 28-10-2008 20:21:10 4.9 C 5.81 g/m*3 4.9 C 0 km/h
50 28-10-2008 20:46:10 4.7 C 5.73 g/m*3 4.7 C 0 km/h
Sensor: Nr:Datum:Temp:Abs-Feuchte:Windchill:Wind:
Aussen-T/F 51 28-10-2008 21:11:10 4.4 C 5.62 g/m*3 4.4 C 0 km/h
52 28-10-2008 21:36:10 4.2 C 5.61 g/m*3 4.2 C 0 km/h
53 28-10-2008 22:01:11 3.9 C 5.49 g/m*3 3.9 C 0 km/h
54 28-10-2008 22:26:11 3.8 C 5.58 g/m*3 3.8 C 0 km/h
55 28-10-2008 22:51:11 3.6 C 5.51 g/m*3 3.6 C 0 km/h
56 28-10-2008 23:16:11 3.4 C 5.44 g/m*3 3.4 C 0 km/h
57 28-10-2008 23:41:11 3.2 C 5.36 g/m*3 3.2 C 0 km/h
58 29-10-2008 00:06:11 3.2 C 5.42 g/m*3 3.2 C 0 km/h
59 29-10-2008 00:31:11 3.1 C 5.39 g/m*3 3.1 C 0 km/h
60 29-10-2008 00:56:11 2.8 C 5.34 g/m*3 2.8 C 0 km/h
61 29-10-2008 01:21:11 2.8 C 5.4 g/m*3 2.8 C 0 km/h
62 29-10-2008 01:46:11 2.9 C 5.43 g/m*3 2.9 C 0 km/h
63 29-10-2008 02:11:11 3 C 5.47 g/m*3 3 C 0 km/h
64 29-10-2008 02:36:11 2.9 C 5.49 g/m*3 2.9 C 0 km/h
65 29-10-2008 03:01:11 3.1 C 5.51 g/m*3 3.1 C 0 km/h
66 29-10-2008 03:26:11 3.4 C 5.68 g/m*3 3.4 C 0 km/h
67 29-10-2008 03:51:11 3.6 C 5.76 g/m*3 3.6 C 0 km/h
68 29-10-2008 04:16:11 3.6 C 5.69 g/m*3 3.6 C 0 km/h
69 29-10-2008 04:41:11 3.4 C 5.62 g/m*3 3.4 C 0 km/h
70 29-10-2008 05:06:11 3.5 C 5.66 g/m*3 3.5 C 0 km/h
71 29-10-2008 05:31:11 3.7 C 5.73 g/m*3 3.7 C 0 km/h
72 29-10-2008 05:56:11 3.7 C 5.73 g/m*3 3.7 C 0 km/h
73 29-10-2008 06:21:11 3.7 C 5.73 g/m*3 3.7 C 0 km/h
74 29-10-2008 06:46:12 3.7 C 5.67 g/m*3 3.7 C 0 km/h
75 29-10-2008 07:11:12 3.7 C 5.67 g/m*3 3.7 C 0 km/h
Sensor: Nr:Datum:Temp:Abs-Feuchte:Windchill:Wind:
Aussen-T/F 76 29-10-2008 07:36:12 3.6 C 5.63 g/m*3 3.6 C 0 km/h
77 29-10-2008 08:01:12 3.6 C 5.63 g/m*3 3.6 C 0 km/h
78 29-10-2008 08:26:12 3.9 C 5.75 g/m*3 3.9 C 0 km/h
79 29-10-2008 08:51:12 3.9 C 5.68 g/m*3 3.9 C 0 km/h
80 29-10-2008 09:16:12 4.4 C 5.75 g/m*3 4.4 C 0 km/h
81 29-10-2008 09:41:12 4.6 C 5.69 g/m*3 4.6 C 0 km/h
82 29-10-2008 10:06:12 5 C 5.57 g/m*3 5 C 0 km/h
83 29-10-2008 10:31:12 5.6 C 5.66 g/m*3 5.6 C 0 km/h
84 29-10-2008 10:56:12 5.6 C 5.59 g/m*3 5.6 C 0 km/h
85 29-10-2008 11:21:12 6.5 C 5.77 g/m*3 6.5 C 0 km/h
86 29-10-2008 11:46:12 7.2 C 5.65 g/m*3 7.2 C 0 km/h
87 29-10-2008 12:11:12 7.1 C 5.54 g/m*3 7.1 C 0 km/h
88 29-10-2008 12:36:12 7.5 C 5.76 g/m*3 7.5 C 0 km/h
89 29-10-2008 13:01:12 8 C 5.37 g/m*3 8 C 0 km/h
90 29-10-2008 13:26:12 8.4 C 5.51 g/m*3 8.4 C 0 km/h
91 29-10-2008 13:51:12 9.2 C 5.63 g/m*3 9.2 C 0 km/h
92 29-10-2008 14:16:12 9.1 C 5.41 g/m*3 9.1 C 0 km/h
93 29-10-2008 14:41:12 10.2 C 5.42 g/m*3 10.2 C 0 km/h
94 29-10-2008 15:06:13 10.7 C 5.11 g/m*3 10.7 C 0 km/h
95 29-10-2008 15:31:13 9.8 C 5.1 g/m*3 9.8 C 0 km/h
96 29-10-2008 15:56:13 9.4 C 5.34 g/m*3 9.4 C 0 km/h
97 29-10-2008 16:21:13 8.4 C 5.34 g/m*3 8.4 C 0 km/h
98 29-10-2008 16:46:13 7.9 C 5.5 g/m*3 7.9 C 0 km/h
99 29-10-2008 17:11:13 7.1 C 5.38 g/m*3 7.1 C 0 km/h
100 29-10-2008 17:36:13 6.7 C 5.47 g/m*3 6.7 C 0 km/h
Sensor: Nr:Datum:Temp:Abs-Feuchte:Windchill:Wind:
Aussen-T/F 101 29-10-2008 18:01:13 6.4 C 5.59 g/m*3 6.4 C 0 km/h
102 29-10-2008 18:26:13 6.2 C 5.52 g/m*3 6.2 C 0 km/h
103 29-10-2008 18:51:13 6 C 5.52 g/m*3 6 C 0 km/h
104 29-10-2008 19:16:13 5.9 C 5.62 g/m*3 5.9 C 0 km/h
105 29-10-2008 19:41:13 5.9 C 5.7 g/m*3 5.9 C 0 km/h
106 29-10-2008 20:06:13 5.8 C 5.66 g/m*3 5.8 C 0 km/h
107 29-10-2008 20:31:13 5.4 C 5.58 g/m*3 5.4 C 0 km/h
108 29-10-2008 20:56:13 5.1 C 5.54 g/m*3 5.1 C 0 km/h
109 29-10-2008 21:21:13 5.3 C 5.54 g/m*3 5.3 C 0 km/h
110 29-10-2008 21:46:13 5.1 C 5.47 g/m*3 5.1 C 0 km/h
111 29-10-2008 22:11:13 5.2 C 5.51 g/m*3 5.2 C 0 km/h
112 29-10-2008 22:36:13 5.2 C 5.58 g/m*3 5.2 C 0 km/h
113 29-10-2008 23:01:13 5.2 C 5.65 g/m*3 5.2 C 0 km/h
114 29-10-2008 23:26:13 5.2 C 5.65 g/m*3 5.2 C 0 km/h
115 29-10-2008 23:51:14 5 C 5.64 g/m*3 5 C 0 km/h
116 30-10-2008 00:16:14 5 C 5.71 g/m*3 5 C 0 km/h
117 30-10-2008 00:41:14 4.9 C 5.74 g/m*3 4.9 C 0 km/h
118 30-10-2008 01:06:14 4.7 C 5.73 g/m*3 4.7 C 0 km/h
119 30-10-2008 01:31:14 4.8 C 5.83 g/m*3 4.8 C 0 km/h
120 30-10-2008 01:56:14 4.8 C 5.83 g/m*3 4.8 C 0 km/h
121 30-10-2008 02:21:14 5 C 5.84 g/m*3 5 C 0 km/h
122 30-10-2008 02:46:14 4.8 C 5.83 g/m*3 4.8 C 0 km/h
123 30-10-2008 03:11:14 4.8 C 5.9 g/m*3 4.8 C 0 km/h
124 30-10-2008 03:36:14 4.7 C 5.93 g/m*3 4.7 C 0 km/h
125 30-10-2008 04:01:14 4.7 C 6 g/m*3 4.7 C 0 km/h
Sensor: Nr:Datum:Temp:Abs-Feuchte:Windchill:Wind:
Aussen-T/F 126 30-10-2008 04:26:14 4.5 C 5.98 g/m*3 4.5 C 0 km/h
127 30-10-2008 04:51:14 4.5 C 5.98 g/m*3 4.5 C 0 km/h
128 30-10-2008 05:16:14 4.5 C 6.05 g/m*3 4.5 C 0 km/h
129 30-10-2008 05:41:14 4.5 C 6.05 g/m*3 4.5 C 0 km/h
130 30-10-2008 06:06:14 4.2 C 5.93 g/m*3 4.2 C 0 km/h
131 30-10-2008 06:31:14 4.2 C 5.93 g/m*3 4.2 C 0 km/h
132 30-10-2008 06:56:14 4.1 C 5.89 g/m*3 4.1 C 0 km/h
133 30-10-2008 07:21:14 3.9 C 5.87 g/m*3 3.9 C 0 km/h
134 30-10-2008 07:46:14 3.9 C 5.94 g/m*3 3.9 C 0 km/h
135 30-10-2008 08:11:15 4 C 5.98 g/m*3 4 C 0 km/h
136 30-10-2008 08:36:15 4.2 C 6.06 g/m*3 4.2 C 0 km/h
137 30-10-2008 09:01:15 4.6 C 6.22 g/m*3 4.6 C 0 km/h
138 30-10-2008 09:26:15 4.8 C 6.3 g/m*3 4.8 C 0 km/h
139 30-10-2008 09:51:15 4.8 C 6.24 g/m*3 4.8 C 0 km/h
140 30-10-2008 10:16:15 4.7 C 6 g/m*3 4.7 C 0 km/h
141 30-10-2008 10:41:15 4.7 C 5.93 g/m*3 4.7 C 0 km/h
142 30-10-2008 11:06:15 5.1 C 6.02 g/m*3 5.1 C 0 km/h
143 30-10-2008 11:31:15 5.3 C 6.1 g/m*3 5.3 C 0 km/h
144 30-10-2008 11:56:15 5.8 C 6.23 g/m*3 5.8 C 0 km/h
145 30-10-2008 12:21:15 5.7 C 6.05 g/m*3 5.7 C 0 km/h
146 30-10-2008 12:46:15 5.6 C 6.08 g/m*3 5.6 C 0 km/h
147 30-10-2008 13:11:15 5.7 C 6.12 g/m*3 5.7 C 0 km/h
148 30-10-2008 13:36:15 5.3 C 5.82 g/m*3 5.3 C 0 km/h
149 30-10-2008 14:01:15 5.7 C 6.05 g/m*3 5.7 C 0 km/h
150 30-10-2008 14:26:15 5.6 C 6.08 g/m*3 5.6 C 0 km/h
Sensor: Nr:Datum:Temp:Abs-Feuchte:Windchill:Wind:
Aussen-T/F 151 30-10-2008 14:51:15 5.4 C 6 g/m*3 5.4 C 0 km/h
152 30-10-2008 15:16:15 5.8 C 6.16 g/m*3 5.8 C 0 km/h
153 30-10-2008 15:41:15 5.7 C 6.05 g/m*3 5.7 C 0 km/h
154 30-10-2008 16:06:15 5.7 C 6.12 g/m*3 5.7 C 0 km/h
155 30-10-2008 16:31:15 5.7 C 6.19 g/m*3 5.7 C 0 km/h
156 30-10-2008 16:56:16 5.4 C 6.07 g/m*3 5.4 C 0 km/h
157 30-10-2008 17:21:16 4.8 C 5.9 g/m*3 4.8 C 0 km/h
158 30-10-2008 17:46:16 4.7 C 5.86 g/m*3 4.7 C 0 km/h
159 30-10-2008 18:11:16 4.8 C 5.97 g/m*3 4.8 C 0 km/h
160 30-10-2008 18:36:16 4.6 C 5.89 g/m*3 4.6 C 0 km/h
161 30-10-2008 19:01:16 4.6 C 6.02 g/m*3 4.6 C 0 km/h
162 30-10-2008 19:26:16 4.6 C 6.02 g/m*3 4.6 C 0 km/h
163 30-10-2008 19:51:16 4.6 C 6.09 g/m*3 4.6 C 0 km/h
164 30-10-2008 20:16:16 4.4 C 6.01 g/m*3 4.4 C 0 km/h
165 30-10-2008 20:41:16 4.5 C 6.11 g/m*3 4.5 C 0 km/h
166 30-10-2008 21:06:16 4.4 C 6.07 g/m*3 4.4 C 0 km/h
167 30-10-2008 21:31:16 4.3 C 6.03 g/m*3 4.3 C 0 km/h
168 30-10-2008 21:56:16 4.3 C 6.03 g/m*3 4.3 C 0 km/h
169 30-10-2008 22:21:16 4.3 C 6.1 g/m*3 4.3 C 0 km/h
170 30-10-2008 22:46:16 4.3 C 6.1 g/m*3 4.3 C 0 km/h
171 30-10-2008 23:11:16 4.1 C 6.02 g/m*3 4.1 C 0 km/h
172 30-10-2008 23:36:16 3.9 C 5.94 g/m*3 3.9 C 0 km/h
173 31-10-2008 00:01:16 3.8 C 5.96 g/m*3 3.8 C 0 km/h
174 31-10-2008 00:26:16 3.7 C 5.92 g/m*3 3.7 C 0 km/h
175 31-10-2008 00:51:16 3.4 C 5.8 g/m*3 3.4 C 0 km/h
Sensor: Nr:Datum:Temp:Abs-Feuchte:Windchill:Wind:
Aussen-T/F 176 31-10-2008 01:16:16 3.2 C 5.72 g/m*3 3.2 C 0 km/h
177 31-10-2008 01:41:17 2.8 C 5.57 g/m*3 2.8 C 0 km/h
178 31-10-2008 02:06:17 2.7 C 5.54 g/m*3 2.7 C 0 km/h
179 31-10-2008 02:31:17 2.9 C 5.61 g/m*3 2.9 C 0 km/h
180 31-10-2008 02:56:17 3.2 C 5.72 g/m*3 3.2 C 0 km/h
181 31-10-2008 03:21:17 3.1 C 5.69 g/m*3 3.1 C 0 km/h
182 31-10-2008 03:46:17 3 C 5.65 g/m*3 3 C 0 km/h
183 31-10-2008 04:11:17 3.1 C 5.69 g/m*3 3.1 C 0 km/h
184 31-10-2008 04:36:17 3.2 C 5.72 g/m*3 3.2 C 0 km/h
185 31-10-2008 05:01:17 3.3 C 5.76 g/m*3 3.3 C 0 km/h
186 31-10-2008 05:26:17 3.6 C 5.88 g/m*3 3.6 C 0 km/h
187 31-10-2008 05:51:17 3.7 C 5.92 g/m*3 3.7 C 0 km/h
188 31-10-2008 06:16:17 3.8 C 5.96 g/m*3 3.8 C 0 km/h
189 31-10-2008 06:41:17 4 C 6.04 g/m*3 4 C 0 km/h
190 31-10-2008 07:06:17 4 C 6.04 g/m*3 4 C 0 km/h
191 31-10-2008 07:31:17 4 C 6.04 g/m*3 4 C 0 km/h
192 31-10-2008 07:56:17 4.1 C 6.08 g/m*3 4.1 C 0 km/h
193 31-10-2008 08:21:17 4.3 C 6.16 g/m*3 4.3 C 0 km/h
194 31-10-2008 08:46:17 4.5 C 6.24 g/m*3 4.5 C 0 km/h
195 31-10-2008 09:11:17 4.9 C 6.41 g/m*3 4.9 C 0 km/h
196 31-10-2008 09:36:17 5.4 C 6.63 g/m*3 5.4 C 0 km/h
197 31-10-2008 10:01:17 5.8 C 6.81 g/m*3 5.8 C 0 km/h
198 31-10-2008 10:26:18 6.3 C 6.74 g/m*3 6.3 C 0 km/h
199 31-10-2008 10:51:18 6.5 C 6.6 g/m*3 6.5 C 0 km/h
200 31-10-2008 11:16:18 7.1 C 6.55 g/m*3 7.1 C 0 km/h
Sensor: Nr:Datum:Temp:Abs-Feuchte:Windchill:Wind:
Aussen-T/F 201 31-10-2008 11:41:18 7 C 6.51 g/m*3 7 C 0 km/h
202 31-10-2008 12:06:18 7 C 6.66 g/m*3 7 C 0 km/h
203 31-10-2008 12:31:18 7.8 C 7.02 g/m*3 7.8 C 0 km/h
204 31-10-2008 12:56:18 8 C 6.7 g/m*3 8 C 0 km/h
205 31-10-2008 13:21:18 8 C 6.7 g/m*3 8 C 0 km/h
206 31-10-2008 13:46:18 8.8 C 6.7 g/m*3 8.8 C 0 km/h
207 31-10-2008 14:11:18 9.5 C 6.74 g/m*3 9.5 C 0 km/h
208 31-10-2008 14:36:18 10 C 6.77 g/m*3 10 C 0 km/h
209 31-10-2008 15:01:18 11.2 C 6.99 g/m*3 11.2 C 0 km/h
210 31-10-2008 15:26:18 11.1 C 6.35 g/m*3 11.1 C 0 km/h
211 31-10-2008 15:51:18 10.2 C 6.38 g/m*3 10.2 C 0 km/h
212 31-10-2008 16:16:18 9.6 C 6.5 g/m*3 9.6 C 0 km/h
213 31-10-2008 16:41:18 8.9 C 6.48 g/m*3 8.9 C 0 km/h
214 31-10-2008 17:06:18 8.4 C 6.53 g/m*3 8.4 C 0 km/h
215 31-10-2008 17:31:18 8.1 C 6.32 g/m*3 8.1 C 0 km/h
216 31-10-2008 17:56:18 7.9 C 6.32 g/m*3 7.9 C 0 km/h
217 31-10-2008 18:21:18 7.3 C 6.32 g/m*3 7.3 C 0 km/h
218 31-10-2008 18:46:19 6.8 C 6.42 g/m*3 6.8 C 0 km/h
219 31-10-2008 19:11:19 7 C 6.51 g/m*3 7 C 0 km/h
220 31-10-2008 19:36:19 6.8 C 6.5 g/m*3 6.8 C 0 km/h
221 31-10-2008 20:01:19 6.7 C 6.53 g/m*3 6.7 C 0 km/h
222 31-10-2008 20:26:19 6.5 C 6.52 g/m*3 6.5 C 0 km/h
223 31-10-2008 20:51:19 6.4 C 6.56 g/m*3 6.4 C 0 km/h
224 31-10-2008 21:16:19 6.2 C 6.47 g/m*3 6.2 C 0 km/h
225 31-10-2008 21:41:19 6.2 C 6.55 g/m*3 6.2 C 0 km/h
Sensor: Nr:Datum:Temp:Abs-Feuchte:Windchill:Wind:
Aussen-T/F 226 31-10-2008 22:06:19 6.2 C 6.55 g/m*3 6.2 C 0 km/h
227 31-10-2008 22:31:19 6.2 C 6.55 g/m*3 6.2 C 0 km/h
228 31-10-2008 22:56:19 6.3 C 6.66 g/m*3 6.3 C 0 km/h
229 31-10-2008 23:21:19 6.5 C 6.75 g/m*3 6.5 C 0 km/h
230 31-10-2008 23:46:19 6.5 C 6.67 g/m*3 6.5 C 0 km/h
231 01-11-2008 00:11:19 6.4 C 6.63 g/m*3 6.4 C 0 km/h
232 01-11-2008 00:36:19 6.3 C 6.66 g/m*3 6.3 C 0 km/h
233 01-11-2008 01:01:19 6.4 C 6.71 g/m*3 6.4 C 0 km/h
234 01-11-2008 01:26:19 6.4 C 6.78 g/m*3 6.4 C 0 km/h
235 01-11-2008 01:51:19 6.4 C 6.85 g/m*3 6.4 C 0 km/h
236 01-11-2008 02:16:19 6.3 C 6.81 g/m*3 6.3 C 0 km/h
237 01-11-2008 02:41:19 6.2 C 6.84 g/m*3 6.2 C 0 km/h
238 01-11-2008 03:06:19 6.2 C 6.91 g/m*3 6.2 C 0 km/h
239 01-11-2008 03:31:20 6 C 6.82 g/m*3 6 C 0 km/h
240 01-11-2008 03:56:20 5.9 C 6.85 g/m*3 5.9 C 0 km/h
241 01-11-2008 04:21:20 6 C 6.9 g/m*3 6 C 0 km/h
242 01-11-2008 04:46:20 5.9 C 6.85 g/m*3 5.9 C 0 km/h
243 01-11-2008 05:11:20 6 C 6.9 g/m*3 6 C 0 km/h
244 01-11-2008 05:36:20 6 C 6.9 g/m*3 6 C 0 km/h
245 01-11-2008 06:01:20 5.9 C 6.85 g/m*3 5.9 C 0 km/h
246 01-11-2008 06:26:20 5.9 C 6.85 g/m*3 5.9 C 0 km/h
247 01-11-2008 06:51:20 5.7 C 6.76 g/m*3 5.7 C 0 km/h
248 01-11-2008 07:16:20 5.5 C 6.67 g/m*3 5.5 C 0 km/h
249 01-11-2008 07:41:20 5.3 C 6.58 g/m*3 5.3 C 0 km/h
250 01-11-2008 08:06:20 5.6 C 6.72 g/m*3 5.6 C 0 km/h
Sensor: Nr:Datum:Temp:Abs-Feuchte:Windchill:Wind:
Aussen-T/F 251 01-11-2008 08:31:20 5.9 C 6.85 g/m*3 5.9 C 0 km/h
252 01-11-2008 08:56:20 6.5 C 7.12 g/m*3 6.5 C 0 km/h
253 01-11-2008 09:21:20 7.1 C 7.41 g/m*3 7.1 C 0 km/h
254 01-11-2008 09:46:20 7.4 C 7.55 g/m*3 7.4 C 0 km/h
255 01-11-2008 10:11:20 7.9 C 7.56 g/m*3 7.9 C 0 km/h
256 01-11-2008 10:36:20 8.2 C 7.2 g/m*3 8.2 C 0 km/h
257 01-11-2008 11:01:20 8.5 C 7.09 g/m*3 8.5 C 0 km/h
258 01-11-2008 11:26:20 8.7 C 7.01 g/m*3 8.7 C 0 km/h
259 01-11-2008 11:51:20 9.3 C 6.74 g/m*3 9.3 C 0 km/h
260 01-11-2008 12:16:21 9.6 C 6.78 g/m*3 9.6 C 0 km/h
261 01-11-2008 12:41:21 10 C 6.58 g/m*3 10 C 0 km/h
262 01-11-2008 13:06:21 10 C 6.58 g/m*3 10 C 0 km/h
263 01-11-2008 13:31:21 10.3 C 6.7 g/m*3 10.3 C 0 km/h
264 01-11-2008 13:56:21 10.3 C 6.8 g/m*3 10.3 C 0 km/h
265 01-11-2008 14:21:21 10.4 C 6.84 g/m*3 10.4 C 0 km/h
266 01-11-2008 14:46:21 10.5 C 6.89 g/m*3 10.5 C 0 km/h
267 01-11-2008 15:11:21 10.8 C 6.92 g/m*3 10.8 C 0 km/h
268 01-11-2008 15:36:21 10.5 C 7.18 g/m*3 10.5 C 0 km/h
269 01-11-2008 16:01:21 10.1 C 7.28 g/m*3 10.1 C 0 km/h
270 01-11-2008 16:26:21 9.8 C 7.52 g/m*3 9.8 C 0 km/h
271 01-11-2008 16:51:21 9.5 C 7.55 g/m*3 9.5 C 0 km/h
272 01-11-2008 17:16:21 9.4 C 7.6 g/m*3 9.4 C 0 km/h
273 01-11-2008 17:41:21 9.5 C 7.74 g/m*3 9.5 C 0 km/h
274 01-11-2008 18:06:21 9.4 C 7.69 g/m*3 9.4 C 0 km/h
275 01-11-2008 18:31:21 9.2 C 7.59 g/m*3 9.2 C 0 km/h
Sensor: Nr:Datum:Temp:Abs-Feuchte:Windchill:Wind:
Aussen-T/F 276 01-11-2008 18:56:21 9.2 C 7.68 g/m*3 9.2 C 0 km/h
277 01-11-2008 19:21:21 9.2 C 7.68 g/m*3 9.2 C 0 km/h
278 01-11-2008 19:46:21 9.2 C 7.68 g/m*3 9.2 C 0 km/h
279 01-11-2008 20:11:21 9 C 7.41 g/m*3 9 C 0 km/h
280 01-11-2008 20:36:22 8.9 C 7.53 g/m*3 8.9 C 0 km/h
281 01-11-2008 21:01:22 8.7 C 7.52 g/m*3 8.7 C 0 km/h
282 01-11-2008 21:26:22 8.4 C 7.38 g/m*3 8.4 C 0 km/h
283 01-11-2008 21:51:22 8.3 C 7.42 g/m*3 8.3 C 0 km/h
284 01-11-2008 22:16:22 8.6 C 7.65 g/m*3 8.6 C 0 km/h
285 01-11-2008 22:41:22 8.6 C 7.73 g/m*3 8.6 C 0 km/h
286 01-11-2008 23:06:22 8.5 C 7.68 g/m*3 8.5 C 0 km/h
287 01-11-2008 23:31:22 8.4 C 7.63 g/m*3 8.4 C 0 km/h
288 01-11-2008 23:56:22 8.4 C 7.72 g/m*3 8.4 C 0 km/h
289 02-11-2008 00:21:22 8.5 C 7.77 g/m*3 8.5 C 0 km/h
290 02-11-2008 00:46:22 8.5 C 7.85 g/m*3 8.5 C 0 km/h
291 02-11-2008 01:11:22 9.6 C 7.79 g/m*3 9.6 C 0 km/h
292 02-11-2008 01:36:22 9.8 C 7.42 g/m*3 9.8 C 0 km/h
293 02-11-2008 02:01:22 9.3 C 7.46 g/m*3 9.3 C 0 km/h
294 02-11-2008 02:26:22 9.4 C 7.51 g/m*3 9.4 C 0 km/h
295 02-11-2008 02:51:22 9 C 7.41 g/m*3 9 C 0 km/h
296 02-11-2008 03:16:22 8.9 C 7.53 g/m*3 8.9 C 0 km/h
297 02-11-2008 03:41:22 8.5 C 7.43 g/m*3 8.5 C 0 km/h
298 02-11-2008 04:06:22 8.3 C 7.5 g/m*3 8.3 C 0 km/h
299 02-11-2008 04:31:22 8.1 C 7.49 g/m*3 8.1 C 0 km/h
300 02-11-2008 04:56:22 7.9 C 7.47 g/m*3 7.9 C 0 km/h
Sensor: Nr:Datum:Temp:Abs-Feuchte:Windchill:Wind:
Aussen-T/F 301 02-11-2008 05:21:23 7.6 C 7.41 g/m*3 7.6 C 0 km/h
302 02-11-2008 05:46:23 7.6 C 7.41 g/m*3 7.6 C 0 km/h
303 02-11-2008 06:11:23 7.4 C 7.4 g/m*3 7.4 C 0 km/h
304 02-11-2008 06:36:23 7.5 C 7.52 g/m*3 7.5 C 0 km/h
305 02-11-2008 07:01:23 7.4 C 7.48 g/m*3 7.4 C 0 km/h
306 02-11-2008 07:26:23 7.3 C 7.43 g/m*3 7.3 C 0 km/h
307 02-11-2008 07:51:23 7.1 C 7.33 g/m*3 7.1 C 0 km/h
308 02-11-2008 08:16:23 7.3 C 7.43 g/m*3 7.3 C 0 km/h
309 02-11-2008 08:41:23 7.6 C 7.65 g/m*3 7.6 C 0 km/h
310 02-11-2008 09:06:23 7.6 C 7.65 g/m*3 7.6 C 0 km/h
311 02-11-2008 09:31:23 8.1 C 7.82 g/m*3 8.1 C 0 km/h
312 02-11-2008 09:56:23 8.7 C 8.13 g/m*3 8.7 C 0 km/h
313 02-11-2008 10:21:23 9.5 C 8.47 g/m*3 9.5 C 0 km/h
314 02-11-2008 10:46:23 10.1 C 8.42 g/m*3 10.1 C 0 km/h
315 02-11-2008 11:11:23 10.8 C 8.2 g/m*3 10.8 C 0 km/h
316 02-11-2008 11:36:23 11.5 C 8.06 g/m*3 11.5 C 0 km/h
317 02-11-2008 12:01:23 12.5 C 8.25 g/m*3 12.5 C 0 km/h
318 02-11-2008 12:26:23 13.4 C 8.02 g/m*3 13.4 C 0 km/h
319 02-11-2008 12:51:23 13.5 C 7.84 g/m*3 13.5 C 0 km/h
320 02-11-2008 13:16:23 13.8 C 7.74 g/m*3 13.8 C 0 km/h
321 02-11-2008 13:41:24 14.1 C 7.89 g/m*3 14.1 C 0 km/h
322 02-11-2008 14:06:24 15.4 C 7.88 g/m*3 15.4 C 0 km/h
323 02-11-2008 14:31:24 14.8 C 7.73 g/m*3 14.8 C 0 km/h
324 02-11-2008 14:56:24 14.4 C 7.91 g/m*3 14.4 C 0 km/h
325 02-11-2008 15:21:24 14.4 C 7.91 g/m*3 14.4 C 0 km/h
Sensor: Nr:Datum:Temp:Abs-Feuchte:Windchill:Wind:
Aussen-T/F 326 02-11-2008 15:46:24 13.8 C 8.1 g/m*3 13.8 C 0 km/h
327 02-11-2008 16:11:24 13.5 C 8.19 g/m*3 13.5 C 0 km/h
328 02-11-2008 16:36:24 12.6 C 8.19 g/m*3 12.6 C 0 km/h
329 02-11-2008 17:01:24 11.8 C 8.1 g/m*3 11.8 C 0 km/h
330 02-11-2008 17:26:24 11.2 C 8.01 g/m*3 11.2 C 0 km/h
331 02-11-2008 17:51:24 10.6 C 8 g/m*3 10.6 C 0 km/h
332 02-11-2008 18:16:24 10.7 C 8.15 g/m*3 10.7 C 0 km/h
333 02-11-2008 18:41:24 10.1 C 7.85 g/m*3 10.1 C 0 km/h
334 02-11-2008 19:06:24 9.9 C 7.94 g/m*3 9.9 C 0 km/h
335 02-11-2008 19:31:24 9.8 C 7.89 g/m*3 9.8 C 0 km/h
336 02-11-2008 19:56:24 9.6 C 7.88 g/m*3 9.6 C 0 km/h
337 02-11-2008 20:21:24 9.4 C 7.87 g/m*3 9.4 C 0 km/h
338 02-11-2008 20:46:24 9.2 C 7.86 g/m*3 9.2 C 0 km/h
339 02-11-2008 21:11:24 9.1 C 7.81 g/m*3 9.1 C 0 km/h
340 02-11-2008 21:36:24 9.1 C 7.9 g/m*3 9.1 C 0 km/h
341 02-11-2008 22:01:24 9.2 C 7.95 g/m*3 9.2 C 0 km/h
342 02-11-2008 22:26:25 9 C 7.85 g/m*3 9 C 0 km/h
343 02-11-2008 22:51:25 8.7 C 7.7 g/m*3 8.7 C 0 km/h
344 02-11-2008 23:16:25 8.6 C 7.73 g/m*3 8.6 C 0 km/h
345 02-11-2008 23:41:25 8.2 C 7.62 g/m*3 8.2 C 0 km/h
346 03-11-2008 00:06:25 8.1 C 7.57 g/m*3 8.1 C 0 km/h
347 03-11-2008 00:31:25 8 C 7.52 g/m*3 8 C 0 km/h
348 03-11-2008 00:56:25 7.7 C 7.46 g/m*3 7.7 C 0 km/h
349 03-11-2008 01:21:25 7.8 C 7.59 g/m*3 7.8 C 0 km/h
350 03-11-2008 01:46:25 8 C 7.69 g/m*3 8 C 0 km/h
Sensor: Nr:Datum:Temp:Abs-Feuchte:Windchill:Wind:
Aussen-T/F 351 03-11-2008 02:11:25 8 C 7.69 g/m*3 8 C 0 km/h
352 03-11-2008 02:36:25 8 C 7.69 g/m*3 8 C 0 km/h
353 03-11-2008 03:01:25 8.5 C 8.03 g/m*3 8.5 C 0 km/h
354 03-11-2008 03:26:25 8.9 C 8.23 g/m*3 8.9 C 0 km/h
355 03-11-2008 03:51:25 9 C 8.11 g/m*3 9 C 0 km/h
356 03-11-2008 04:16:25 9.1 C 8.07 g/m*3 9.1 C 0 km/h
357 03-11-2008 04:41:25 9.1 C 7.99 g/m*3 9.1 C 0 km/h
358 03-11-2008 05:06:25 9.2 C 7.95 g/m*3 9.2 C 0 km/h
359 03-11-2008 05:31:25 9.2 C 7.86 g/m*3 9.2 C 0 km/h
360 03-11-2008 05:56:25 9.1 C 7.81 g/m*3 9.1 C 0 km/h
361 03-11-2008 06:21:25 9.2 C 7.86 g/m*3 9.2 C 0 km/h
362 03-11-2008 06:46:25 9.2 C 7.77 g/m*3 9.2 C 0 km/h
363 03-11-2008 07:11:26 9.2 C 7.77 g/m*3 9.2 C 0 km/h
364 03-11-2008 07:36:26 9.2 C 7.77 g/m*3 9.2 C 0 km/h
365 03-11-2008 08:01:26 9.4 C 7.87 g/m*3 9.4 C 0 km/h
366 03-11-2008 08:26:26 9.5 C 7.92 g/m*3 9.5 C 0 km/h
367 03-11-2008 08:51:26 9.8 C 8.07 g/m*3 9.8 C 0 km/h
368 03-11-2008 09:16:26 10.1 C 7.94 g/m*3 10.1 C 0 km/h
369 03-11-2008 09:41:26 10.2 C 7.9 g/m*3 10.2 C 0 km/h
370 03-11-2008 10:06:26 10.4 C 7.81 g/m*3 10.4 C 0 km/h
371 03-11-2008 10:31:26 10.5 C 7.76 g/m*3 10.5 C 0 km/h
372 03-11-2008 10:56:26 11.1 C 7.96 g/m*3 11.1 C 0 km/h
373 03-11-2008 11:21:26 11.4 C 7.8 g/m*3 11.4 C 0 km/h
374 03-11-2008 11:46:26 11.7 C 7.84 g/m*3 11.7 C 0 km/h
375 03-11-2008 12:11:26 12.7 C 8.24 g/m*3 12.7 C 0 km/h
Sensor: Nr:Datum:Temp:Abs-Feuchte:Windchill:Wind:
Aussen-T/F 376 03-11-2008 12:36:26 13.1 C 7.99 g/m*3 13.1 C 0 km/h
377 03-11-2008 13:01:26 13.4 C 7.9 g/m*3 13.4 C 0 km/h
378 03-11-2008 13:26:26 13.4 C 7.9 g/m*3 13.4 C 0 km/h
379 03-11-2008 13:51:26 13.5 C 7.72 g/m*3 13.5 C 0 km/h
380 03-11-2008 14:16:26 13.6 C 7.77 g/m*3 13.6 C 0 km/h
381 03-11-2008 14:41:26 14.4 C 7.79 g/m*3 14.4 C 0 km/h
382 03-11-2008 15:06:27 14 C 7.84 g/m*3 14 C 0 km/h
383 03-11-2008 15:31:27 13.3 C 8.09 g/m*3 13.3 C 0 km/h
384 03-11-2008 15:56:27 13.2 C 8.27 g/m*3 13.2 C 0 km/h
385 03-11-2008 16:21:27 12.7 C 8.24 g/m*3 12.7 C 0 km/h
386 03-11-2008 16:46:27 12.3 C 8.25 g/m*3 12.3 C 0 km/h
387 03-11-2008 17:11:27 11.5 C 8.06 g/m*3 11.5 C 0 km/h
388 03-11-2008 17:36:27 10.8 C 8.01 g/m*3 10.8 C 0 km/h
389 03-11-2008 18:01:27 10.1 C 7.85 g/m*3 10.1 C 0 km/h
390 03-11-2008 18:26:27 9.7 C 7.93 g/m*3 9.7 C 0 km/h
391 03-11-2008 18:51:27 9.3 C 7.82 g/m*3 9.3 C 0 km/h
392 03-11-2008 19:16:27 9 C 7.76 g/m*3 9 C 0 km/h
393 03-11-2008 19:41:27 8.5 C 7.6 g/m*3 8.5 C 0 km/h
394 03-11-2008 20:06:27 8.4 C 7.63 g/m*3 8.4 C 0 km/h
395 03-11-2008 20:31:27 8.1 C 7.49 g/m*3 8.1 C 0 km/h
396 03-11-2008 20:56:27 7.9 C 7.56 g/m*3 7.9 C 0 km/h
397 03-11-2008 21:21:27 7.5 C 7.36 g/m*3 7.5 C 0 km/h
398 03-11-2008 21:46:27 7.1 C 7.18 g/m*3 7.1 C 0 km/h
399 03-11-2008 22:11:27 6.8 C 7.11 g/m*3 6.8 C 0 km/h
400 03-11-2008 22:36:27 6.6 C 7.02 g/m*3 6.6 C 0 km/h
Sensor: Nr:Datum:Temp:Abs-Feuchte:Windchill:Wind:
Aussen-T/F 401 03-11-2008 23:01:27 6.4 C 6.93 g/m*3 6.4 C 0 km/h
402 03-11-2008 23:26:28 6.7 C 7.14 g/m*3 6.7 C 0 km/h
403 03-11-2008 23:51:28 7.1 C 7.33 g/m*3 7.1 C 0 km/h

Legende:
   Min
   Max


Maximal/Minimal-Werte vom 17.04.2019 - 19.05.2019

Sensor Min Max Avg
Temp
(Aussen-T/F)
2.2 °C
13-05-2019  06:50:00
26.6 °C
24-04-2019  17:05:00
11.51 °C

Die Daten stammen von einer Davis Vantage Pro 2 Wetter-Station und werden unter Linux mit der Software wview2wettercgi und aufbereitet. Alle Angaben erfolgen ohne Gewähr für ihre Vollständigkeit oder Richtigkeit.
Kontakt: Rainer Krienke krienke@uni-koblenz.de . Meine Webseiten an der Uni Koblenz oder privat.
Version: $Revision: 0.78 $